createdAt,value
2019-02-06T00:00:01.077Z,4.20
2019-02-06T00:02:28.855Z,4.20
2019-02-06T00:04:56.347Z,4.20
2019-02-06T00:07:24.135Z,4.20
2019-02-06T00:09:51.903Z,4.20
2019-02-06T00:12:19.905Z,4.20
2019-02-06T00:14:47.449Z,4.10
2019-02-06T00:17:14.981Z,4.20
2019-02-06T00:19:42.529Z,4.20
2019-02-06T00:22:10.207Z,4.20
2019-02-06T00:24:37.810Z,4.10
2019-02-06T00:27:05.371Z,4.20
2019-02-06T00:29:32.863Z,4.20
2019-02-06T00:32:00.928Z,4.20
2019-02-06T00:34:28.533Z,4.20
2019-02-06T00:36:56.066Z,4.20
2019-02-06T00:39:23.757Z,4.20
2019-02-06T00:41:51.327Z,4.20
2019-02-06T00:44:18.873Z,4.20
2019-02-06T00:46:46.464Z,4.20
2019-02-06T00:49:14.042Z,4.20
2019-02-06T00:51:42.736Z,4.20
2019-02-06T00:54:10.334Z,4.20
2019-02-06T00:56:37.762Z,4.20
2019-02-06T00:59:05.396Z,4.20
2019-02-06T01:01:33.188Z,4.20
2019-02-06T01:04:00.808Z,4.20
2019-02-06T01:06:28.230Z,4.20
2019-02-06T01:08:55.961Z,4.20
2019-02-06T01:11:23.693Z,4.20
2019-02-06T01:13:51.277Z,4.20
2019-02-06T01:16:19.184Z,4.20
2019-02-06T01:18:47.524Z,4.20
2019-02-06T01:21:15.105Z,4.10
2019-02-06T01:23:43.079Z,4.10
2019-02-06T01:26:10.618Z,4.10
2019-02-06T01:28:38.122Z,4.10
2019-02-06T01:31:25.129Z,4.10
2019-02-06T01:33:52.633Z,4.10
2019-02-06T01:36:20.308Z,4.10
2019-02-06T01:38:47.989Z,4.10
2019-02-06T01:41:15.503Z,4.00
2019-02-06T01:43:43.154Z,4.00
2019-02-06T01:46:10.716Z,4.00
2019-02-06T01:48:38.206Z,4.00
2019-02-06T01:51:05.658Z,4.00
2019-02-06T01:53:33.232Z,4.00
2019-02-06T01:56:01.076Z,4.00
2019-02-06T01:58:28.676Z,4.00
2019-02-06T02:00:56.434Z,4.00
2019-02-06T02:03:24.146Z,4.00
2019-02-06T02:06:01.703Z,4.00
2019-02-06T02:08:20.964Z,3.90
2019-02-06T02:10:48.593Z,4.00
2019-02-06T02:13:16.585Z,3.90
2019-02-06T02:15:44.138Z,3.90
2019-02-06T02:18:11.781Z,3.90
2019-02-06T02:20:39.207Z,3.90
2019-02-06T02:23:06.805Z,3.80
2019-02-06T02:25:34.369Z,3.80
2019-02-06T02:28:01.975Z,3.80
2019-02-06T02:30:41.358Z,3.80
2019-02-06T02:33:10.238Z,3.80
2019-02-06T02:35:38.049Z,3.70
2019-02-06T02:38:05.672Z,3.70
2019-02-06T02:40:33.266Z,3.70
2019-02-06T02:43:00.898Z,3.70
2019-02-06T02:45:28.810Z,3.70
2019-02-06T02:47:56.312Z,3.70
2019-02-06T02:50:23.982Z,3.60
2019-02-06T02:52:51.670Z,3.60
2019-02-06T02:55:19.277Z,3.60
2019-02-06T02:57:46.807Z,3.60
2019-02-06T03:00:16.597Z,3.60
2019-02-06T03:03:03.851Z,3.60
2019-02-06T03:05:33.579Z,3.60
2019-02-06T03:08:01.087Z,3.60
2019-02-06T03:10:28.674Z,3.60
2019-02-06T03:12:56.238Z,3.50
2019-02-06T03:15:23.995Z,3.60
2019-02-06T03:17:51.452Z,3.60
2019-02-06T03:20:19.134Z,3.60
2019-02-06T03:22:46.733Z,3.60
2019-02-06T03:25:14.501Z,3.60
2019-02-06T03:27:42.031Z,3.50
2019-02-06T03:30:12.872Z,3.50
2019-02-06T03:32:40.427Z,3.50
2019-02-06T03:35:08.058Z,3.50
2019-02-06T03:37:35.630Z,3.50
2019-02-06T03:40:04.254Z,3.50
2019-02-06T03:42:32.913Z,3.50
2019-02-06T03:45:01.586Z,3.50
2019-02-06T03:47:29.211Z,3.50
2019-02-06T03:49:56.932Z,3.50
2019-02-06T03:52:24.286Z,3.50
2019-02-06T03:54:51.898Z,3.50
2019-02-06T03:57:19.463Z,3.50
2019-02-06T03:59:46.770Z,3.50
2019-02-06T04:02:14.434Z,3.50
2019-02-06T04:04:42.182Z,3.50
2019-02-06T04:07:10.019Z,3.60
2019-02-06T04:09:37.584Z,3.50
2019-02-06T04:12:05.595Z,3.50
2019-02-06T04:14:32.938Z,3.60
2019-02-06T04:17:00.299Z,3.60
2019-02-06T04:19:27.797Z,3.60
2019-02-06T04:21:55.520Z,3.60
2019-02-06T04:24:23.639Z,3.60
2019-02-06T04:26:51.210Z,3.60
2019-02-06T04:29:18.824Z,3.60
2019-02-06T04:31:46.310Z,3.60
2019-02-06T04:34:13.815Z,3.60
2019-02-06T04:36:41.275Z,3.60
2019-02-06T04:39:08.718Z,3.60
2019-02-06T04:41:36.781Z,3.60
2019-02-06T04:44:05.046Z,3.60
2019-02-06T04:46:32.608Z,3.60
2019-02-06T04:49:02.938Z,3.60
2019-02-06T04:51:30.526Z,3.60
2019-02-06T04:53:58.026Z,3.60
2019-02-06T04:56:25.623Z,3.60
2019-02-06T04:58:53.559Z,3.60
2019-02-06T05:01:21.183Z,3.60
2019-02-06T05:03:48.872Z,3.50
2019-02-06T05:06:16.330Z,3.60
2019-02-06T05:08:44.029Z,3.60
2019-02-06T05:11:11.472Z,3.60
2019-02-06T05:13:39.014Z,3.60
2019-02-06T05:16:06.466Z,3.60
2019-02-06T05:18:33.976Z,3.60
2019-02-06T05:21:01.579Z,3.60
2019-02-06T05:23:30.469Z,3.60
2019-02-06T05:25:58.004Z,3.50
2019-02-06T05:28:25.562Z,3.60
2019-02-06T05:30:53.286Z,3.60
2019-02-06T05:33:20.872Z,3.60
2019-02-06T05:35:48.778Z,3.60
2019-02-06T05:38:16.325Z,3.60
2019-02-06T05:40:43.880Z,3.60
2019-02-06T05:43:11.482Z,3.60
2019-02-06T05:45:39.033Z,3.60
2019-02-06T05:48:06.774Z,3.60
2019-02-06T05:50:34.335Z,3.60
2019-02-06T05:53:01.978Z,3.60
2019-02-06T05:55:29.589Z,3.60
2019-02-06T05:58:00.407Z,3.60
2019-02-06T06:00:43.142Z,3.60
2019-02-06T06:03:10.859Z,3.60
2019-02-06T06:05:38.830Z,3.60
2019-02-06T06:08:06.817Z,3.60
2019-02-06T06:10:34.914Z,3.60
2019-02-06T06:13:02.839Z,3.60
2019-02-06T06:15:30.822Z,3.60
2019-02-06T06:17:58.485Z,3.60
2019-02-06T06:20:26.058Z,3.50
2019-02-06T06:22:53.622Z,3.50
2019-02-06T06:25:21.386Z,3.60
2019-02-06T06:27:49.415Z,3.60
2019-02-06T06:30:17.731Z,3.60
2019-02-06T06:32:46.102Z,3.60
2019-02-06T06:35:14.199Z,3.60
2019-02-06T06:38:02.891Z,3.60
2019-02-06T06:40:30.971Z,3.70
2019-02-06T06:42:59.331Z,3.70
2019-02-06T06:45:27.637Z,3.70
2019-02-06T06:47:59.325Z,3.70
2019-02-06T06:50:27.082Z,3.70
2019-02-06T06:52:54.617Z,3.70
2019-02-06T06:55:22.644Z,3.80
2019-02-06T06:57:50.399Z,3.80
2019-02-06T07:00:20.736Z,3.80
2019-02-06T07:02:48.324Z,3.80
2019-02-06T07:05:15.921Z,3.80
2019-02-06T07:07:43.672Z,3.90
2019-02-06T07:10:12.308Z,3.80
2019-02-06T07:12:40.469Z,3.80
2019-02-06T07:15:11.580Z,3.90
2019-02-06T07:17:59.636Z,3.90
2019-02-06T07:20:27.379Z,3.90
2019-02-06T07:22:54.826Z,3.90
2019-02-06T07:25:22.438Z,3.90
2019-02-06T07:27:49.922Z,4.00
2019-02-06T07:30:22.516Z,4.00
2019-02-06T07:32:50.002Z,4.00
2019-02-06T07:35:17.539Z,4.10
2019-02-06T07:37:45.152Z,4.10
2019-02-06T07:40:13.597Z,4.10
2019-02-06T07:42:41.261Z,4.20
2019-02-06T07:45:09.154Z,4.20
2019-02-06T07:47:36.899Z,4.20
2019-02-06T07:50:06.823Z,4.20
2019-02-06T07:52:34.471Z,4.30
2019-02-06T07:55:01.913Z,4.30
2019-02-06T07:57:29.923Z,4.30
2019-02-06T08:00:00.598Z,4.30
2019-02-06T08:02:28.257Z,4.30
2019-02-06T08:04:55.883Z,4.40
2019-02-06T08:07:23.498Z,4.40
2019-02-06T08:09:50.998Z,4.40
2019-02-06T08:12:18.567Z,4.40
2019-02-06T08:14:46.526Z,4.50
2019-02-06T08:17:14.136Z,4.50
2019-02-06T08:19:41.781Z,4.50
2019-02-06T08:22:09.327Z,4.50
2019-02-06T08:24:36.775Z,4.60
2019-02-06T08:27:04.310Z,4.60
2019-02-06T08:29:31.990Z,4.60
2019-02-06T08:31:59.547Z,4.70
2019-02-06T08:34:27.130Z,4.70
2019-02-06T08:36:54.662Z,4.70
2019-02-06T08:39:22.431Z,4.70
2019-02-06T08:41:50.004Z,4.80
2019-02-06T08:44:18.581Z,4.80
2019-02-06T08:46:46.194Z,4.80
2019-02-06T08:49:13.678Z,4.80
2019-02-06T08:51:41.150Z,4.90
2019-02-06T08:54:08.666Z,4.90
2019-02-06T08:56:36.298Z,4.90
2019-02-06T08:59:03.956Z,5.00
2019-02-06T09:01:31.736Z,5.00
2019-02-06T09:03:59.164Z,5.00
2019-02-06T09:06:26.841Z,5.10
2019-02-06T09:08:59.802Z,5.20
2019-02-06T09:11:24.122Z,5.20
2019-02-06T09:13:51.794Z,5.30
2019-02-06T09:16:19.408Z,5.30
2019-02-06T09:18:47.121Z,5.40
2019-02-06T09:21:15.828Z,5.50
2019-02-06T09:23:43.527Z,5.60
2019-02-06T09:26:11.437Z,5.60
2019-02-06T09:28:38.959Z,5.70
2019-02-06T09:31:06.474Z,5.70
2019-02-06T09:33:33.954Z,5.80
2019-02-06T09:36:01.770Z,5.80
2019-02-06T09:38:29.397Z,5.90
2019-02-06T09:40:57.005Z,5.90
2019-02-06T09:43:27.459Z,5.90
2019-02-06T09:45:56.948Z,6.00
2019-02-06T09:48:23.883Z,6.00
2019-02-06T09:50:51.553Z,6.00
2019-02-06T09:53:19.124Z,6.00
2019-02-06T09:55:46.685Z,6.00
2019-02-06T09:58:14.189Z,6.10
2019-02-06T10:00:42.383Z,6.10
2019-02-06T10:03:09.875Z,6.10
2019-02-06T10:05:37.539Z,6.20
2019-02-06T10:08:05.401Z,6.10
2019-02-06T10:10:33.014Z,6.10
2019-02-06T10:13:01.735Z,6.10
2019-02-06T10:15:33.999Z,6.10
2019-02-06T10:18:02.012Z,6.10
2019-02-06T10:20:32.266Z,6.20
2019-02-06T10:23:00.039Z,6.20
2019-02-06T10:25:30.206Z,6.20
2019-02-06T10:27:58.060Z,6.20
2019-02-06T10:30:34.054Z,6.20
2019-02-06T10:33:02.619Z,6.20
2019-02-06T10:35:30.131Z,6.20
2019-02-06T10:37:57.678Z,6.20
2019-02-06T10:40:25.564Z,6.30
2019-02-06T10:42:53.215Z,6.30
2019-02-06T10:45:21.287Z,6.30
2019-02-06T10:47:49.456Z,6.30
2019-02-06T10:50:19.359Z,6.40
2019-02-06T10:52:48.339Z,6.40
2019-02-06T10:55:15.961Z,6.50
2019-02-06T10:57:43.730Z,6.50
2019-02-06T11:00:15.614Z,6.50
2019-02-06T11:02:43.820Z,6.50
2019-02-06T11:05:12.231Z,6.50
2019-02-06T11:07:39.787Z,6.50
2019-02-06T11:10:07.892Z,6.50
2019-02-06T11:12:35.487Z,6.50
2019-02-06T11:15:03.613Z,6.50
2019-02-06T11:17:31.270Z,6.50
2019-02-06T11:19:58.725Z,6.50
2019-02-06T11:22:26.666Z,6.50
2019-02-06T11:24:54.270Z,6.50
2019-02-06T11:27:21.812Z,6.50
2019-02-06T11:29:49.352Z,6.50
2019-02-06T11:32:16.882Z,6.50
2019-02-06T11:34:44.680Z,6.50
2019-02-06T11:37:12.509Z,6.50
2019-02-06T11:39:40.490Z,6.50
2019-02-06T11:42:08.059Z,6.50
2019-02-06T11:44:35.542Z,6.50
2019-02-06T11:47:03.404Z,6.50
2019-02-06T11:49:37.090Z,6.50
2019-02-06T11:52:04.623Z,6.50
2019-02-06T11:54:32.259Z,6.50
2019-02-06T11:57:00.007Z,6.60
2019-02-06T11:59:27.485Z,6.60
2019-02-06T12:01:55.135Z,6.60
2019-02-06T12:04:22.552Z,6.60
2019-02-06T12:06:50.103Z,6.60
2019-02-06T12:09:17.394Z,6.60
2019-02-06T12:11:45.056Z,6.60
2019-02-06T12:14:13.827Z,6.60
2019-02-06T12:16:41.634Z,6.70
2019-02-06T12:19:09.118Z,6.70
2019-02-06T12:21:36.960Z,6.70
2019-02-06T12:24:04.967Z,6.70
2019-02-06T12:26:33.395Z,6.70
2019-02-06T12:29:00.951Z,6.60
2019-02-06T12:31:29.406Z,6.60
2019-02-06T12:33:57.068Z,6.60
2019-02-06T12:36:24.762Z,6.60
2019-02-06T12:38:53.854Z,6.60
2019-02-06T12:41:21.607Z,6.60
2019-02-06T12:43:49.256Z,6.60
2019-02-06T12:46:16.742Z,6.60
2019-02-06T12:48:44.405Z,6.60
2019-02-06T12:51:11.913Z,6.70
2019-02-06T12:53:39.963Z,6.70
2019-02-06T12:59:46.562Z,6.70
2019-02-06T13:02:10.575Z,6.80
2019-02-06T13:04:38.102Z,6.80
2019-02-06T13:07:05.672Z,6.80
2019-02-06T13:09:33.274Z,6.80
2019-02-06T13:12:00.761Z,6.80
2019-02-06T13:14:28.398Z,6.90
2019-02-06T13:16:56.112Z,6.90
2019-02-06T13:19:23.577Z,6.90
2019-02-06T13:21:51.094Z,6.80
2019-02-06T13:24:18.705Z,6.80
2019-02-06T13:26:46.549Z,6.90
2019-02-06T13:29:14.311Z,6.90
2019-02-06T13:31:45.999Z,6.90
2019-02-06T13:34:13.893Z,6.90
2019-02-06T13:36:41.463Z,6.90
2019-02-06T13:39:09.856Z,6.90
2019-02-06T13:41:38.334Z,6.90
2019-02-06T13:44:05.712Z,6.90
2019-02-06T13:46:33.415Z,6.90
2019-02-06T13:49:01.138Z,6.80
2019-02-06T13:51:29.860Z,6.80
2019-02-06T13:53:57.539Z,6.80
2019-02-06T13:56:25.078Z,6.80
2019-02-06T13:58:52.623Z,6.80
2019-02-06T14:01:26.169Z,6.80
2019-02-06T14:03:49.539Z,6.80
2019-02-06T14:06:17.429Z,6.80
2019-02-06T14:08:45.008Z,6.80
2019-02-06T14:11:13.303Z,6.80
2019-02-06T14:13:41.012Z,6.80
2019-02-06T14:16:08.519Z,6.80
2019-02-06T14:18:36.118Z,6.80
2019-02-06T14:21:04.520Z,6.80
2019-02-06T14:24:10.547Z,6.80
2019-02-06T14:27:09.953Z,6.80
2019-02-06T14:30:16.270Z,6.80
2019-02-06T14:33:37.578Z,6.70
2019-02-06T14:36:37.367Z,6.70
2019-02-06T14:39:27.538Z,6.60
2019-02-06T14:42:28.274Z,6.60
2019-02-06T14:45:12.453Z,6.60
2019-02-06T14:48:02.123Z,6.60
2019-02-06T14:51:25.974Z,6.60
2019-02-06T14:54:22.910Z,6.50
2019-02-06T14:57:16.508Z,6.50
2019-02-06T15:00:16.811Z,6.50
2019-02-06T15:03:47.583Z,6.50
2019-02-06T15:06:39.810Z,6.50
2019-02-06T15:09:52.321Z,6.50
2019-02-06T15:13:05.001Z,6.40
2019-02-06T15:16:29.578Z,6.40
2019-02-06T15:19:21.521Z,6.40
2019-02-06T15:22:19.572Z,6.40
2019-02-06T15:25:00.093Z,6.30
2019-02-06T15:27:53.267Z,6.30
2019-02-06T15:30:45.508Z,6.40
2019-02-06T15:33:42.099Z,6.40
2019-02-06T15:36:59.223Z,6.40
2019-02-06T15:39:56.238Z,6.40
2019-02-06T15:42:58.457Z,6.40
2019-02-06T15:46:05.919Z,6.40
2019-02-06T15:49:19.847Z,6.40
2019-02-06T15:52:22.446Z,6.30
2019-02-06T15:55:24.951Z,6.30
2019-02-06T15:58:35.669Z,6.30
2019-02-06T16:01:36.378Z,6.30
2019-02-06T16:05:00.313Z,6.30
2019-02-06T16:08:14.817Z,6.20
2019-02-06T16:11:14.946Z,6.30
2019-02-06T16:14:26.962Z,6.20
2019-02-06T16:17:21.862Z,6.20
2019-02-06T16:20:35.155Z,6.20
2019-02-06T16:23:29.898Z,6.20
2019-02-06T16:26:35.055Z,6.20
2019-02-06T16:29:39.441Z,6.20
2019-02-06T16:32:25.268Z,6.10
2019-02-06T16:35:25.738Z,6.20
2019-02-06T16:38:26.090Z,6.10
2019-02-06T16:42:02.919Z,6.10
2019-02-06T16:44:48.641Z,6.20
2019-02-06T16:47:55.374Z,6.30
2019-02-06T16:51:05.589Z,6.30
2019-02-06T16:54:02.073Z,6.30
2019-02-06T16:57:04.985Z,6.20
2019-02-06T17:00:14.351Z,6.20
2019-02-06T17:03:21.423Z,6.10
2019-02-06T17:06:17.838Z,6.10
2019-02-06T17:09:17.063Z,6.10
2019-02-06T17:12:06.181Z,6.10
2019-02-06T17:15:00.442Z,6.10
2019-02-06T17:17:50.446Z,6.10
2019-02-06T17:20:46.968Z,6.10
2019-02-06T17:23:56.574Z,6.10
2019-02-06T17:27:17.143Z,6.10
2019-02-06T17:30:08.810Z,6.10
2019-02-06T17:33:24.456Z,6.10
2019-02-06T17:36:15.249Z,6.10
2019-02-06T17:38:56.809Z,6.10
2019-02-06T17:41:49.225Z,6.10
2019-02-06T17:44:43.890Z,6.10
2019-02-06T17:47:34.312Z,6.10
2019-02-06T17:50:32.802Z,6.10
2019-02-06T17:53:38.088Z,6.10
2019-02-06T17:56:05.763Z,6.10
2019-02-06T17:58:36.865Z,6.10
2019-02-06T18:01:11.550Z,6.10
2019-02-06T18:03:46.041Z,6.20
2019-02-06T18:06:14.190Z,6.10
2019-02-06T18:08:41.685Z,6.10
2019-02-06T18:11:09.890Z,6.10
2019-02-06T18:13:37.526Z,6.10
2019-02-06T18:16:05.572Z,6.10
2019-02-06T18:18:33.106Z,6.10
2019-02-06T18:21:00.546Z,6.10
2019-02-06T18:23:28.459Z,6.10
2019-02-06T18:25:56.031Z,6.10
2019-02-06T18:28:24.822Z,6.10
2019-02-06T18:30:52.570Z,6.10
2019-02-06T18:33:20.171Z,6.10
2019-02-06T18:35:47.934Z,6.10
2019-02-06T18:38:16.074Z,6.10
2019-02-06T18:40:46.238Z,6.10
2019-02-06T18:43:13.878Z,6.10
2019-02-06T18:45:44.843Z,6.10
2019-02-06T18:48:12.870Z,6.10
2019-02-06T18:50:40.453Z,6.10
2019-02-06T18:53:08.119Z,6.10
2019-02-06T18:55:36.186Z,6.10
2019-02-06T18:58:05.318Z,6.10
2019-02-06T19:00:32.729Z,6.10
2019-02-06T19:03:01.752Z,6.20
2019-02-06T19:05:32.162Z,6.20
2019-02-06T19:07:59.923Z,6.20
2019-02-06T19:10:28.634Z,6.20
2019-02-06T19:12:56.483Z,6.20
2019-02-06T19:15:24.595Z,6.30
2019-02-06T19:17:52.173Z,6.30
2019-02-06T19:20:20.114Z,6.30
2019-02-06T19:22:47.646Z,6.30
2019-02-06T19:25:15.514Z,6.20
2019-02-06T19:27:46.075Z,6.20
2019-02-06T19:30:18.060Z,6.20
2019-02-06T19:32:45.628Z,6.20
2019-02-06T19:35:35.366Z,6.20
2019-02-06T19:38:03.410Z,6.20
2019-02-06T19:40:31.500Z,6.20
2019-02-06T19:43:02.557Z,6.20
2019-02-06T19:45:29.151Z,6.20
2019-02-06T19:47:57.230Z,6.20
2019-02-06T19:50:31.143Z,6.20
2019-02-06T19:52:58.711Z,6.20
2019-02-06T19:55:26.364Z,6.20
2019-02-06T19:57:54.243Z,6.20
2019-02-06T20:00:24.543Z,6.20
2019-02-06T20:02:52.259Z,6.20
2019-02-06T20:05:20.553Z,6.20
2019-02-06T20:07:48.379Z,6.20
2019-02-06T20:10:19.041Z,6.30
2019-02-06T20:12:47.783Z,6.20
2019-02-06T20:15:17.440Z,6.20
2019-02-06T20:17:45.027Z,6.30
2019-02-06T20:20:15.219Z,6.20
2019-02-06T20:22:42.836Z,6.20
2019-02-06T20:25:10.907Z,6.20
2019-02-06T20:27:38.861Z,6.30
2019-02-06T20:30:09.222Z,6.30
2019-02-06T20:32:38.179Z,6.30
2019-02-06T20:35:07.614Z,6.30
2019-02-06T20:37:35.303Z,6.30
2019-02-06T20:40:04.943Z,6.30
2019-02-06T20:42:33.331Z,6.30
2019-02-06T20:45:01.284Z,6.30
2019-02-06T20:47:28.927Z,6.30
2019-02-06T20:49:56.669Z,6.30
2019-02-06T20:52:24.416Z,6.30
2019-02-06T20:54:51.949Z,6.30
2019-02-06T20:57:20.230Z,6.30
2019-02-06T20:59:48.089Z,6.30
2019-02-06T21:02:16.485Z,6.30
2019-02-06T21:04:46.947Z,6.30
2019-02-06T21:07:13.870Z,6.30
2019-02-06T21:09:41.481Z,6.30
2019-02-06T21:12:09.058Z,6.30
2019-02-06T21:14:36.600Z,6.30
2019-02-06T21:17:04.364Z,6.30
2019-02-06T21:19:32.418Z,6.30
2019-02-06T21:22:00.085Z,6.30
2019-02-06T21:24:27.623Z,6.30
2019-02-06T21:26:55.205Z,6.30
2019-02-06T21:29:22.970Z,6.30
2019-02-06T21:31:50.420Z,6.30
2019-02-06T21:34:18.026Z,6.30
2019-02-06T21:36:45.956Z,6.30
2019-02-06T21:39:13.437Z,6.30
2019-02-06T21:41:41.190Z,6.30
2019-02-06T21:44:08.787Z,6.30
2019-02-06T21:46:36.254Z,6.30
2019-02-06T21:49:03.814Z,6.40
2019-02-06T21:51:34.582Z,6.30
2019-02-06T21:54:02.842Z,6.30
2019-02-06T21:56:30.350Z,6.30
2019-02-06T21:58:58.024Z,6.40
2019-02-06T22:01:25.746Z,6.30
2019-02-06T22:03:53.319Z,6.30
2019-02-06T22:06:20.778Z,6.30
2019-02-06T22:08:48.298Z,6.30
2019-02-06T22:11:16.287Z,6.40
2019-02-06T22:13:54.633Z,6.30
2019-02-06T22:16:13.106Z,6.30
2019-02-06T22:18:40.536Z,6.40
2019-02-06T22:21:08.073Z,6.40
2019-02-06T22:23:35.625Z,6.30
2019-02-06T22:26:03.443Z,6.40
2019-02-06T22:28:31.134Z,6.30
2019-02-06T22:30:58.582Z,6.30
2019-02-06T22:33:26.087Z,6.30
2019-02-06T22:35:53.670Z,6.30
2019-02-06T22:38:21.126Z,6.30
2019-02-06T22:40:49.031Z,6.30
2019-02-06T22:43:16.606Z,6.30
2019-02-06T22:45:44.492Z,6.30
2019-02-06T22:48:12.120Z,6.30
2019-02-06T22:50:39.704Z,6.30
2019-02-06T22:53:18.207Z,6.30
2019-02-06T22:55:45.733Z,6.40
2019-02-06T22:58:13.376Z,6.40
2019-02-06T23:01:15.770Z,6.40
2019-02-06T23:03:45.036Z,6.30
2019-02-06T23:06:13.100Z,6.30
2019-02-06T23:08:41.231Z,6.30
2019-02-06T23:11:09.052Z,6.30
2019-02-06T23:13:36.608Z,6.30
2019-02-06T23:16:04.807Z,6.30
2019-02-06T23:18:32.463Z,6.30
2019-02-06T23:21:00.051Z,6.30
2019-02-06T23:23:27.693Z,6.30
2019-02-06T23:25:55.740Z,6.30
2019-02-06T23:28:23.534Z,6.20
2019-02-06T23:30:51.123Z,6.30
2019-02-06T23:33:18.770Z,6.20
2019-02-06T23:35:46.350Z,6.20
2019-02-06T23:38:14.263Z,6.20
2019-02-06T23:40:41.892Z,6.20
2019-02-06T23:43:09.703Z,6.20
2019-02-06T23:45:37.260Z,6.20
2019-02-06T23:48:04.994Z,6.20
2019-02-06T23:50:32.683Z,6.20
2019-02-06T23:53:00.403Z,6.20
2019-02-06T23:55:28.131Z,6.20
2019-02-06T23:57:55.739Z,6.10
